Time;durP1;ratioP1;P1;durP2;ratioP2;P2;SDS_P1;SDS_P2;PMS_P1;PMS_P2;Temp;Humidity;BMP_temperature;BMP_pressure;BME280_temperature;BME280_humidity;BME280_pressure;Samples;Min_cycle;Max_cycle;Signal;HPM_P1;HPM_P2
2022/04/21 00:01:00;;;;;;;;;;;18.40;99.90;;;;;;4860661;29;19916;-74
2022/04/21 00:03:28;;;;;;;;;;;18.50;99.90;;;;;;4860536;29;20345;-74
2022/04/21 00:05:54;;;;;;;;;;;18.40;99.90;;;;;;4860534;29;19913;-74
2022/04/21 00:08:21;;;;;;;;;;;18.40;99.90;;;;;;4863266;29;20485;-74
2022/04/21 00:10:48;;;;;;;;;;;18.50;99.90;;;;;;4879898;29;19947;-74
2022/04/21 00:13:15;;;;;;;;;;;18.50;99.90;;;;;;4879750;29;19912;-74
2022/04/21 00:15:42;;;;;;;;;;;18.60;99.90;;;;;;4879567;29;19960;-73
2022/04/21 00:18:08;;;;;;;;;;;18.60;99.90;;;;;;4879811;29;20006;-73
2022/04/21 00:20:35;;;;;;;;;;;18.70;99.90;;;;;;4879648;29;19951;-73
2022/04/21 00:25:46;;;;;;;;;;;18.90;99.90;;;;;;4879597;29;19919;-74
2022/04/21 00:28:13;;;;;;;;;;;19.10;99.90;;;;;;4879784;29;19912;-76
2022/04/21 00:30:40;;;;;;;;;;;19.20;99.90;;;;;;4879368;29;19920;-74
2022/04/21 00:33:07;;;;;;;;;;;19.20;99.90;;;;;;4879598;29;19911;-73
2022/04/21 00:35:33;;;;;;;;;;;19.30;99.90;;;;;;4879442;29;20379;-74
2022/04/21 00:38:00;;;;;;;;;;;19.30;99.90;;;;;;4879618;29;19922;-75
2022/04/21 00:40:28;;;;;;;;;;;19.30;99.90;;;;;;4879450;29;19916;-75
2022/04/21 00:42:55;;;;;;;;;;;19.50;99.90;;;;;;4879518;29;19912;-76
2022/04/21 00:45:22;;;;;;;;;;;19.50;99.90;;;;;;4878065;29;19918;-76
2022/04/21 00:47:49;;;;;;;;;;;19.60;99.90;;;;;;4879140;29;19919;-76
2022/04/21 00:50:18;;;;;;;;;;;19.70;99.90;;;;;;4879769;29;19971;-77
2022/04/21 00:52:46;;;;;;;;;;;19.70;99.90;;;;;;4883383;29;20356;-77
2022/04/21 00:55:13;;;;;;;;;;;19.80;99.90;;;;;;4883062;29;19911;-77
2022/04/21 00:57:41;;;;;;;;;;;19.90;99.90;;;;;;4882993;29;20473;-76
2022/04/21 01:00:08;;;;;;;;;;;20.00;99.90;;;;;;4883356;29;20402;-77
2022/04/21 01:02:49;;;;;;;;;;;20.20;99.90;;;;;;4882717;29;20455;-77
2022/04/21 01:05:16;;;;;;;;;;;20.40;99.90;;;;;;4883180;29;19916;-77
2022/04/21 01:07:43;;;;;;;;;;;20.60;99.90;;;;;;4882864;29;20367;-77
2022/04/21 01:10:11;;;;;;;;;;;20.90;99.90;;;;;;4866230;29;19967;-77
2022/04/21 01:12:38;;;;;;;;;;;21.20;99.90;;;;;;4882865;29;20280;-78
2022/04/21 01:15:05;;;;;;;;;;;21.40;99.90;;;;;;4882765;29;20182;-77
2022/04/21 01:17:33;;;;;;;;;;;21.50;99.90;;;;;;4882810;29;19912;-77
2022/04/21 01:20:00;;;;;;;;;;;21.60;99.90;;;;;;4882910;29;20503;-77
2022/04/21 01:22:27;;;;;;;;;;;21.70;99.90;;;;;;4866130;29;19941;-77
2022/04/21 01:24:54;;;;;;;;;;;21.70;99.90;;;;;;4882698;29;19912;-78
2022/04/21 01:27:23;;;;;;;;;;;21.60;99.90;;;;;;4882538;29;19920;-77
2022/04/21 01:29:50;;;;;;;;;;;21.30;99.90;;;;;;4881173;29;19916;-77
2022/04/21 01:32:17;;;;;;;;;;;21.30;99.90;;;;;;4882345;29;19916;-76
2022/04/21 01:34:43;;;;;;;;;;;21.30;99.90;;;;;;4882606;29;19994;-74
2022/04/21 01:42:40;;;;;;;;;;;21.20;99.90;;;;;;4882636;29;20446;-76
2022/04/21 01:45:07;;;;;;;;;;;21.10;99.90;;;;;;4882094;29;19912;-75
2022/04/21 01:47:34;;;;;;;;;;;21.30;99.90;;;;;;4882218;29;19920;-75
2022/04/21 01:50:07;;;;;;;;;;;21.20;99.90;;;;;;4882533;29;19935;-74
2022/04/21 01:52:35;;;;;;;;;;;21.10;99.90;;;;;;4882252;29;19912;-75
2022/04/21 01:55:02;;;;;;;;;;;21.10;99.90;;;;;;4882321;29;19968;-74
2022/04/21 01:57:29;;;;;;;;;;;21.10;99.90;;;;;;4882177;29;19912;-75
2022/04/21 01:59:56;;;;;;;;;;;21.00;99.90;;;;;;4882126;29;19912;-75
2022/04/21 02:02:22;;;;;;;;;;;21.00;99.90;;;;;;4881601;29;20320;-75
2022/04/21 02:04:49;;;;;;;;;;;21.00;99.90;;;;;;4882165;29;20279;-75
2022/04/21 02:07:16;;;;;;;;;;;20.80;99.90;;;;;;4882121;29;19931;-75
2022/04/21 02:09:43;;;;;;;;;;;20.60;99.90;;;;;;4878258;29;19923;-74
2022/04/21 02:12:11;;;;;;;;;;;20.80;99.90;;;;;;4870898;29;19923;-75
2022/04/21 02:14:37;;;;;;;;;;;20.80;99.90;;;;;;4862243;29;19916;-76
2022/04/21 02:17:05;;;;;;;;;;;20.80;99.90;;;;;;4862316;29;20755;-74
2022/04/21 02:19:32;;;;;;;;;;;20.70;99.90;;;;;;4862381;29;19912;-77
2022/04/21 02:21:59;;;;;;;;;;;20.70;99.90;;;;;;4862385;29;20254;-75
2022/04/21 02:24:26;;;;;;;;;;;20.80;99.90;;;;;;4862782;29;19935;-76
2022/04/21 02:26:52;;;;;;;;;;;20.80;99.90;;;;;;4861318;29;20005;-77
2022/04/21 02:29:19;;;;;;;;;;;20.70;99.90;;;;;;4881674;29;19935;-74
2022/04/21 02:31:46;;;;;;;;;;;20.70;99.90;;;;;;4881338;29;19951;-74
2022/04/21 02:34:12;;;;;;;;;;;20.50;99.90;;;;;;4881571;29;19998;-74
2022/04/21 02:36:39;;;;;;;;;;;20.30;99.90;;;;;;4881546;29;19912;-76
2022/04/21 02:39:06;;;;;;;;;;;20.20;99.90;;;;;;4881266;29;19916;-77
2022/04/21 02:41:32;;;;;;;;;;;20.10;99.90;;;;;;4881097;29;19919;-76
2022/04/21 02:43:59;;;;;;;;;;;20.00;99.90;;;;;;4881434;29;19919;-75
2022/04/21 02:46:28;;;;;;;;;;;20.00;99.90;;;;;;4881066;29;19919;-75
2022/04/21 02:49:00;;;;;;;;;;;20.00;99.90;;;;;;4881247;29;19912;-75
2022/04/21 02:51:26;;;;;;;;;;;19.90;99.90;;;;;;4881224;29;19959;-74
2022/04/21 02:59:22;;;;;;;;;;;19.60;99.90;;;;;;4881586;29;20382;-75
2022/04/21 03:01:49;;;;;;;;;;;19.40;99.90;;;;;;4880772;29;19947;-75
2022/04/21 03:04:16;;;;;;;;;;;19.30;99.90;;;;;;4880812;29;19928;-75
2022/04/21 03:06:42;;;;;;;;;;;19.30;99.90;;;;;;4880904;29;19920;-75
2022/04/21 03:09:09;;;;;;;;;;;19.10;99.90;;;;;;4864376;29;19912;-75
2022/04/21 03:11:36;;;;;;;;;;;19.00;99.90;;;;;;4864157;29;20336;-75
2022/04/21 03:14:02;;;;;;;;;;;18.80;99.90;;;;;;4880047;29;19919;-75
2022/04/21 03:16:29;;;;;;;;;;;18.70;99.90;;;;;;4880871;29;19912;-74
2022/04/21 03:18:56;;;;;;;;;;;18.70;99.90;;;;;;4880718;29;19912;-76
2022/04/21 03:24:19;;;;;;;;;;;18.60;99.90;;;;;;4880945;29;19918;-75
2022/04/21 03:26:50;;;;;;;;;;;18.50;99.90;;;;;;4864022;29;20261;-75
2022/04/21 03:29:17;;;;;;;;;;;18.40;99.90;;;;;;4880728;29;20001;-75
2022/04/21 03:31:44;;;;;;;;;;;18.40;99.90;;;;;;4880149;29;20412;-75
2022/04/21 03:34:14;;;;;;;;;;;18.30;99.90;;;;;;4880566;29;19915;-76
2022/04/21 03:36:50;;;;;;;;;;;18.10;99.90;;;;;;4880479;29;19919;-75
2022/04/21 03:39:18;;;;;;;;;;;17.90;99.90;;;;;;4880513;29;19912;-76
2022/04/21 03:41:45;;;;;;;;;;;17.70;99.90;;;;;;4880232;29;20003;-76
2022/04/21 03:44:12;;;;;;;;;;;17.60;99.90;;;;;;4880508;29;20023;-77
2022/04/21 03:46:38;;;;;;;;;;;17.50;99.90;;;;;;4880110;29;19936;-76
2022/04/21 03:49:06;;;;;;;;;;;17.50;99.90;;;;;;4880328;29;20432;-77
2022/04/21 03:51:33;;;;;;;;;;;17.40;99.90;;;;;;4879899;29;19912;-77
2022/04/21 03:54:00;;;;;;;;;;;17.30;99.90;;;;;;4880018;29;19970;-77
2022/04/21 03:56:27;;;;;;;;;;;17.20;99.90;;;;;;4880070;29;20303;-77
2022/04/21 03:58:54;;;;;;;;;;;17.20;99.90;;;;;;4880255;29;19918;-78
2022/04/21 04:01:20;;;;;;;;;;;17.10;99.90;;;;;;4879965;29;19922;-77
2022/04/21 04:03:48;;;;;;;;;;;17.20;99.90;;;;;;4879619;29;20387;-78
2022/04/21 04:11:44;;;;;;;;;;;16.90;99.90;;;;;;4879744;29;20283;-76
2022/04/21 04:14:12;;;;;;;;;;;16.90;99.90;;;;;;4879696;29;20603;-77
2022/04/21 04:16:38;;;;;;;;;;;17.00;99.90;;;;;;4878772;29;19911;-76
2022/04/21 04:19:08;;;;;;;;;;;17.00;99.90;;;;;;4879641;29;19998;-76
2022/04/21 04:21:35;;;;;;;;;;;17.00;99.90;;;;;;4879630;29;19911;-77
2022/04/21 04:24:01;;;;;;;;;;;17.00;99.90;;;;;;4879565;29;19912;-76
2022/04/21 04:26:28;;;;;;;;;;;17.00;99.90;;;;;;4879647;29;19927;-76
2022/04/21 04:28:55;;;;;;;;;;;17.00;99.90;;;;;;4879551;29;20002;-77
2022/04/21 04:31:22;;;;;;;;;;;17.00;99.90;;;;;;4879480;29;19912;-76
2022/04/21 04:33:49;;;;;;;;;;;17.10;99.90;;;;;;4879447;29;20326;-76
2022/04/21 04:36:16;;;;;;;;;;;17.10;99.90;;;;;;4879587;29;19916;-75
2022/04/21 04:38:48;;;;;;;;;;;17.20;99.90;;;;;;4879489;29;19968;-75
2022/04/21 04:43:59;;;;;;;;;;;17.30;99.90;;;;;;4879744;29;19980;-76
2022/04/21 04:46:35;;;;;;;;;;;17.30;99.90;;;;;;4879510;29;20428;-76
2022/04/21 04:49:04;;;;;;;;;;;17.30;99.90;;;;;;4879616;29;19918;-76
2022/04/21 04:51:31;;;;;;;;;;;17.40;99.90;;;;;;4879211;29;19916;-76
2022/04/21 04:53:58;;;;;;;;;;;17.30;99.90;;;;;;4879395;29;20010;-78
2022/04/21 04:56:27;;;;;;;;;;;17.30;99.90;;;;;;4879335;29;20331;-77
2022/04/21 04:58:55;;;;;;;;;;;17.30;99.90;;;;;;4879335;29;19992;-78
2022/04/21 05:01:30;;;;;;;;;;;17.20;99.90;;;;;;4879559;29;19912;-78
2022/04/21 05:04:01;;;;;;;;;;;17.30;99.90;;;;;;4879140;29;19923;-77
2022/04/21 05:06:28;;;;;;;;;;;17.20;99.90;;;;;;4879379;29;20318;-77
2022/04/21 05:08:57;;;;;;;;;;;17.30;99.90;;;;;;4879453;29;19912;-77
2022/04/21 05:11:23;;;;;;;;;;;17.30;99.90;;;;;;4879406;29;20360;-77
2022/04/21 05:13:50;;;;;;;;;;;17.40;99.90;;;;;;4879104;29;19927;-77
2022/04/21 05:16:17;;;;;;;;;;;17.60;99.90;;;;;;4879146;29;19912;-77
2022/04/21 05:18:44;;;;;;;;;;;17.90;99.90;;;;;;4879247;29;19919;-77
2022/04/21 05:21:10;;;;;;;;;;;18.10;99.90;;;;;;4879149;29;19959;-77
2022/04/21 05:23:38;;;;;;;;;;;18.20;99.90;;;;;;4879059;29;19960;-78
2022/04/21 05:26:05;;;;;;;;;;;18.30;99.90;;;;;;4878948;29;19911;-78
2022/04/21 05:28:31;;;;;;;;;;;18.40;99.90;;;;;;4879167;29;19974;-76
2022/04/21 05:30:58;;;;;;;;;;;18.40;99.90;;;;;;4878981;29;20287;-76
2022/04/21 05:33:26;;;;;;;;;;;18.40;99.90;;;;;;4879204;29;20052;-76
2022/04/21 05:35:54;;;;;;;;;;;18.40;99.90;;;;;;4879088;29;19919;-77
2022/04/21 05:38:22;;;;;;;;;;;18.40;99.90;;;;;;4882328;29;19920;-76
2022/04/21 05:40:49;;;;;;;;;;;18.40;99.90;;;;;;4882683;29;19916;-77
2022/04/21 05:43:18;;;;;;;;;;;18.40;99.90;;;;;;4882430;29;19970;-76
2022/04/21 05:45:45;;;;;;;;;;;18.50;99.90;;;;;;4882242;29;19918;-76
2022/04/21 05:48:15;;;;;;;;;;;18.50;99.90;;;;;;4882360;29;19979;-77
2022/04/21 05:50:49;;;;;;;;;;;18.50;99.90;;;;;;4882401;29;19912;-77
2022/04/21 05:53:21;;;;;;;;;;;18.60;99.90;;;;;;4882244;29;20332;-76
2022/04/21 05:55:47;;;;;;;;;;;18.50;99.90;;;;;;4882210;29;19940;-76
2022/04/21 05:58:14;;;;;;;;;;;18.50;99.90;;;;;;4882210;29;19911;-76
2022/04/21 06:00:41;;;;;;;;;;;18.50;99.90;;;;;;4881990;29;19963;-76
2022/04/21 06:03:08;;;;;;;;;;;18.50;99.90;;;;;;4881904;29;19924;-77
2022/04/21 06:05:35;;;;;;;;;;;18.50;99.90;;;;;;4882041;29;20340;-76
2022/04/21 06:08:02;;;;;;;;;;;18.40;99.90;;;;;;4881988;29;20450;-76
2022/04/21 06:10:29;;;;;;;;;;;18.40;99.90;;;;;;4882077;29;20387;-76
2022/04/21 06:12:55;;;;;;;;;;;18.40;99.90;;;;;;4881997;29;19915;-76
2022/04/21 06:15:22;;;;;;;;;;;18.40;99.90;;;;;;4881752;29;19912;-76
2022/04/21 06:17:49;;;;;;;;;;;18.40;99.90;;;;;;4881750;29;20391;-76
2022/04/21 06:20:15;;;;;;;;;;;18.40;99.90;;;;;;4881813;29;19911;-76
2022/04/21 06:22:42;;;;;;;;;;;18.40;99.90;;;;;;4881925;29;19993;-76
2022/04/21 06:25:09;;;;;;;;;;;18.40;99.90;;;;;;4881601;29;19918;-76
2022/04/21 06:27:36;;;;;;;;;;;18.40;99.90;;;;;;4881289;29;19920;-75
2022/04/21 06:30:03;;;;;;;;;;;18.50;99.90;;;;;;4881384;29;19912;-76
2022/04/21 06:32:29;;;;;;;;;;;18.50;99.90;;;;;;4881709;29;20002;-76
2022/04/21 06:34:57;;;;;;;;;;;18.50;99.90;;;;;;4881488;29;20006;-77
2022/04/21 06:37:24;;;;;;;;;;;18.50;99.90;;;;;;4881610;29;20375;-76
2022/04/21 06:39:51;;;;;;;;;;;18.50;99.90;;;;;;4881371;29;19915;-76
2022/04/21 06:42:18;;;;;;;;;;;18.50;99.90;;;;;;4881363;29;20063;-76
2022/04/21 06:50:14;;;;;;;;;;;18.50;99.90;;;;;;4881491;29;20011;-76
2022/04/21 06:52:41;;;;;;;;;;;18.50;99.90;;;;;;4878729;29;19912;-77
2022/04/21 06:58:11;;;;;;;;;;;18.50;99.90;;;;;;4879314;29;19919;-77
2022/04/21 07:00:38;;;;;;;;;;;18.50;99.90;;;;;;4878894;29;19969;-76
2022/04/21 07:03:07;;;;;;;;;;;18.50;99.90;;;;;;4879114;29;19924;-77
2022/04/21 07:05:34;;;;;;;;;;;18.50;99.90;;;;;;4878517;29;20325;-77
2022/04/21 07:08:01;;;;;;;;;;;18.60;99.90;;;;;;4878932;29;19980;-76
2022/04/21 07:10:28;;;;;;;;;;;18.60;99.90;;;;;;4878724;29;20291;-76
2022/04/21 07:12:54;;;;;;;;;;;18.60;99.90;;;;;;4878670;29;20011;-77
2022/04/21 07:15:21;;;;;;;;;;;18.60;99.90;;;;;;4878538;29;20398;-76
2022/04/21 07:17:48;;;;;;;;;;;18.60;99.90;;;;;;4878131;29;19923;-76
2022/04/21 07:20:14;;;;;;;;;;;18.70;99.90;;;;;;4878593;29;19916;-77
2022/04/21 07:22:41;;;;;;;;;;;18.70;99.90;;;;;;4878506;29;20370;-77
2022/04/21 07:25:09;;;;;;;;;;;18.80;99.90;;;;;;4878551;29;19963;-76
2022/04/21 07:27:37;;;;;;;;;;;18.70;99.90;;;;;;4878189;29;19920;-76
2022/04/21 07:30:05;;;;;;;;;;;18.70;99.90;;;;;;4878064;29;20368;-76
2022/04/21 07:32:31;;;;;;;;;;;18.80;99.90;;;;;;4878212;29;19912;-76
2022/04/21 07:34:59;;;;;;;;;;;18.80;99.90;;;;;;4878242;29;19912;-76
2022/04/21 07:37:26;;;;;;;;;;;18.80;99.90;;;;;;4878344;29;19912;-76
2022/04/21 07:39:52;;;;;;;;;;;18.80;99.90;;;;;;4878058;29;19912;-76
2022/04/21 07:42:19;;;;;;;;;;;18.80;99.90;;;;;;4878066;29;19919;-76
2022/04/21 07:44:46;;;;;;;;;;;18.80;99.90;;;;;;4877569;29;19959;-76
2022/04/21 07:47:12;;;;;;;;;;;18.70;99.90;;;;;;4878257;29;19924;-76
2022/04/21 07:49:45;;;;;;;;;;;18.70;99.90;;;;;;4877925;29;20364;-75
2022/04/21 07:55:09;;;;;;;;;;;18.80;99.90;;;;;;4878256;29;19918;-74
2022/04/21 07:57:36;;;;;;;;;;;18.70;99.90;;;;;;4877459;29;19912;-75
2022/04/21 08:00:05;;;;;;;;;;;18.80;99.90;;;;;;4877305;29;19918;-74
2022/04/21 08:02:32;;;;;;;;;;;18.70;99.90;;;;;;4877608;29;20025;-74
2022/04/21 08:04:59;;;;;;;;;;;18.80;99.90;;;;;;4877887;29;19915;-75
2022/04/21 08:07:25;;;;;;;;;;;18.70;99.90;;;;;;4877551;29;19940;-74
2022/04/21 08:09:52;;;;;;;;;;;18.70;99.90;;;;;;4877179;29;19916;-74
2022/04/21 08:12:19;;;;;;;;;;;18.70;99.90;;;;;;4877904;29;19971;-75
2022/04/21 08:14:46;;;;;;;;;;;18.70;99.90;;;;;;4877613;29;20007;-75
2022/04/21 08:17:12;;;;;;;;;;;18.70;99.90;;;;;;4877606;29;19967;-74
2022/04/21 08:19:39;;;;;;;;;;;18.70;99.90;;;;;;4877528;29;20328;-75
2022/04/21 08:22:06;;;;;;;;;;;18.60;99.90;;;;;;4877679;29;19919;-75
2022/04/21 08:32:47;;;;;;;;;;;18.60;99.90;;;;;;4877956;29;19919;-75
2022/04/21 08:35:13;;;;;;;;;;;18.60;99.90;;;;;;4877562;29;20496;-75
2022/04/21 08:37:46;;;;;;;;;;;18.60;99.90;;;;;;4877039;29;19920;-75
2022/04/21 08:40:13;;;;;;;;;;;18.60;99.90;;;;;;4877365;29;19964;-75
2022/04/21 08:42:41;;;;;;;;;;;18.70;99.90;;;;;;4877612;29;19916;-75
2022/04/21 08:45:08;;;;;;;;;;;18.70;99.90;;;;;;4876015;29;19939;-76
2022/04/21 08:47:39;;;;;;;;;;;18.70;99.90;;;;;;4877111;29;19931;-74
2022/04/21 08:50:14;;;;;;;;;;;18.70;99.90;;;;;;4877004;29;19918;-75
2022/04/21 08:52:42;;;;;;;;;;;18.70;99.90;;;;;;4877362;29;19912;-76
2022/04/21 08:55:10;;;;;;;;;;;18.80;99.90;;;;;;4877340;29;19939;-75
2022/04/21 08:57:36;;;;;;;;;;;18.80;99.90;;;;;;4877197;29;20278;-75
2022/04/21 09:00:07;;;;;;;;;;;18.70;99.90;;;;;;4877141;29;20395;-77
2022/04/21 09:02:38;;;;;;;;;;;18.80;99.90;;;;;;4876782;29;19943;-75
2022/04/21 09:05:04;;;;;;;;;;;18.80;99.90;;;;;;4877521;29;19916;-77
2022/04/21 09:07:31;;;;;;;;;;;18.70;99.90;;;;;;4879287;29;19926;-77
2022/04/21 09:10:01;;;;;;;;;;;18.70;99.90;;;;;;4879247;29;19916;-77
2022/04/21 09:12:28;;;;;;;;;;;18.70;99.90;;;;;;4881800;29;19912;-77
2022/04/21 09:14:54;;;;;;;;;;;18.70;99.90;;;;;;4882704;29;20279;-77
2022/04/21 09:17:21;;;;;;;;;;;18.70;99.90;;;;;;4882881;29;19918;-77
2022/04/21 09:19:58;;;;;;;;;;;18.70;99.90;;;;;;4882599;29;19912;-77
2022/04/21 09:22:25;;;;;;;;;;;18.70;99.90;;;;;;4882868;29;19998;-77
2022/04/21 09:24:53;;;;;;;;;;;18.70;99.90;;;;;;4882820;29;19915;-77
2022/04/21 09:27:20;;;;;;;;;;;18.70;99.90;;;;;;4882360;29;19967;-77
2022/04/21 09:29:49;;;;;;;;;;;18.60;99.90;;;;;;4882231;29;19915;-77
2022/04/21 09:32:17;;;;;;;;;;;18.30;99.90;;;;;;4882647;29;19919;-77
2022/04/21 09:34:50;;;;;;;;;;;17.80;99.90;;;;;;4882396;29;19911;-77
2022/04/21 09:37:20;;;;;;;;;;;17.50;99.90;;;;;;4882439;29;19920;-77
2022/04/21 09:39:50;;;;;;;;;;;17.30;99.90;;;;;;4882163;29;19912;-77
2022/04/21 09:42:27;;;;;;;;;;;17.30;99.90;;;;;;4882276;29;19916;-77
2022/04/21 09:47:49;;;;;;;;;;;17.10;99.90;;;;;;4882232;29;20291;-75
2022/04/21 09:50:15;;;;;;;;;;;17.00;99.90;;;;;;4882218;29;20434;-75
2022/04/21 09:52:52;;;;;;;;;;;17.00;99.90;;;;;;4882133;29;19923;-75
2022/04/21 09:55:26;;;;;;;;;;;16.80;99.90;;;;;;4882247;29;19912;-73
2022/04/21 09:58:03;;;;;;;;;;;16.70;99.90;;;;;;4881748;29;20002;-74
2022/04/21 10:00:30;;;;;;;;;;;16.50;99.90;;;;;;4882293;29;19964;-75
2022/04/21 10:03:00;;;;;;;;;;;16.40;99.90;;;;;;4881949;29;19920;-76
2022/04/21 10:05:27;;;;;;;;;;;16.40;99.90;;;;;;4882022;29;20318;-75
2022/04/21 10:07:54;;;;;;;;;;;16.50;99.90;;;;;;4881659;29;20038;-74
2022/04/21 10:10:21;;;;;;;;;;;16.40;99.90;;;;;;4882048;29;19915;-74
2022/04/21 10:12:48;;;;;;;;;;;16.40;99.90;;;;;;4881881;29;20383;-74
2022/04/21 10:15:15;;;;;;;;;;;16.50;99.90;;;;;;4881704;29;19912;-75
2022/04/21 10:17:42;;;;;;;;;;;16.50;99.90;;;;;;4881760;29;19912;-74
2022/04/21 10:20:09;;;;;;;;;;;16.50;99.90;;;;;;4881987;29;20019;-75
2022/04/21 10:22:36;;;;;;;;;;;16.60;99.90;;;;;;4881334;29;19960;-75
2022/04/21 10:25:04;;;;;;;;;;;16.60;99.90;;;;;;4881654;29;19919;-75
2022/04/21 10:27:34;;;;;;;;;;;16.60;99.90;;;;;;4881322;29;20014;-75
2022/04/21 10:30:01;;;;;;;;;;;16.70;99.90;;;;;;4881667;29;19912;-75
2022/04/21 10:32:45;;;;;;;;;;;16.60;99.90;;;;;;4881612;29;19919;-75
2022/04/21 10:35:26;;;;;;;;;;;16.70;99.90;;;;;;4877673;29;20271;-76
2022/04/21 10:38:11;;;;;;;;;;;16.60;99.90;;;;;;4881410;29;20002;-76
2022/04/21 10:40:53;;;;;;;;;;;16.50;99.90;;;;;;4881497;29;19947;-76
2022/04/21 10:43:20;;;;;;;;;;;16.50;99.90;;;;;;4880753;29;19916;-76
2022/04/21 10:46:03;;;;;;;;;;;16.50;99.90;;;;;;4881286;29;19919;-76
2022/04/21 10:48:43;;;;;;;;;;;16.50;99.90;;;;;;4881392;29;20014;-76
2022/04/21 10:51:12;;;;;;;;;;;16.50;99.90;;;;;;4881348;29;19943;-76
2022/04/21 10:57:13;;;;;;;;;;;16.40;99.90;;;;;;4848633;29;19939;-76
2022/04/21 10:59:52;;;;;;;;;;;16.40;99.90;;;;;;4881011;29;19916;-76
2022/04/21 11:02:19;;;;;;;;;;;16.40;99.90;;;;;;4880903;29;19919;-76
2022/04/21 11:04:46;;;;;;;;;;;16.30;99.90;;;;;;4880976;29;19915;-78
2022/04/21 11:07:13;;;;;;;;;;;16.30;99.90;;;;;;4880916;29;19928;-77
2022/04/21 11:09:41;;;;;;;;;;;16.40;99.90;;;;;;4880532;29;19923;-77
2022/04/21 11:12:09;;;;;;;;;;;16.40;99.90;;;;;;4880040;29;20268;-74
2022/04/21 11:14:37;;;;;;;;;;;16.40;99.90;;;;;;4880827;29;19916;-74
2022/04/21 11:17:04;;;;;;;;;;;16.40;99.90;;;;;;4880639;29;19940;-74
2022/04/21 11:19:34;;;;;;;;;;;16.50;99.90;;;;;;4880566;29;19911;-74
2022/04/21 11:22:05;;;;;;;;;;;16.50;99.90;;;;;;4880504;29;19918;-76
2022/04/21 11:25:07;;;;;;;;;;;16.50;99.90;;;;;;4880732;29;19918;-75
2022/04/21 11:27:37;;;;;;;;;;;16.50;99.90;;;;;;4804222;29;19964;-76
2022/04/21 11:30:08;;;;;;;;;;;16.50;99.90;;;;;;4867015;29;19915;-76
2022/04/21 11:32:34;;;;;;;;;;;16.50;99.90;;;;;;4863669;29;19960;-76
2022/04/21 11:35:03;;;;;;;;;;;16.50;99.90;;;;;;4879793;29;19912;-76
2022/04/21 11:37:45;;;;;;;;;;;16.50;99.90;;;;;;4880461;29;19916;-76
2022/04/21 11:40:21;;;;;;;;;;;16.50;99.90;;;;;;4880318;29;20248;-77
2022/04/21 11:42:49;;;;;;;;;;;16.50;99.90;;;;;;4879921;29;19998;-75
2022/04/21 11:45:26;;;;;;;;;;;16.50;99.90;;;;;;4880318;29;19916;-76
2022/04/21 11:47:53;;;;;;;;;;;16.50;99.90;;;;;;4880085;29;20280;-75
2022/04/21 11:50:26;;;;;;;;;;;16.50;99.90;;;;;;4880287;29;19919;-75
2022/04/21 11:52:54;;;;;;;;;;;16.40;99.90;;;;;;4880390;29;20308;-75
2022/04/21 11:55:22;;;;;;;;;;;16.40;99.90;;;;;;4879932;29;19915;-75
2022/04/21 11:57:49;;;;;;;;;;;16.30;99.90;;;;;;4879986;29;19967;-75
2022/04/21 12:00:16;;;;;;;;;;;16.30;99.90;;;;;;4880106;29;19983;-75
2022/04/21 12:08:15;;;;;;;;;;;16.20;99.90;;;;;;4880126;29;19948;-76
2022/04/21 12:10:42;;;;;;;;;;;16.10;99.90;;;;;;4879468;29;19911;-76
2022/04/21 12:13:09;;;;;;;;;;;16.00;99.90;;;;;;4879822;29;19912;-75
2022/04/21 12:15:37;;;;;;;;;;;16.00;99.90;;;;;;4879694;29;19916;-75
2022/04/21 12:18:05;;;;;;;;;;;15.90;99.90;;;;;;4879870;29;19927;-78
2022/04/21 12:20:31;;;;;;;;;;;15.80;99.90;;;;;;4879881;29;19919;-77
2022/04/21 12:22:58;;;;;;;;;;;15.70;99.90;;;;;;4879769;29;19943;-77
2022/04/21 12:25:31;;;;;;;;;;;15.70;99.90;;;;;;4879381;29;20320;-77
2022/04/21 12:28:02;;;;;;;;;;;15.70;99.90;;;;;;4879403;29;19975;-77
2022/04/21 12:30:29;;;;;;;;;;;15.70;99.90;;;;;;4879593;29;19924;-77
2022/04/21 12:32:56;;;;;;;;;;;15.70;99.90;;;;;;4879724;29;19968;-77
2022/04/21 12:35:40;;;;;;;;;;;15.80;99.90;;;;;;4879586;29;19912;-77
2022/04/21 12:40:52;;;;;;;;;;;15.80;99.90;;;;;;4879396;29;19919;-77
2022/04/21 12:43:19;;;;;;;;;;;15.90;99.90;;;;;;4879610;29;20257;-76
2022/04/21 12:45:46;;;;;;;;;;;15.90;99.90;;;;;;4879358;29;19912;-75
2022/04/21 12:48:24;;;;;;;;;;;15.90;99.90;;;;;;4879506;29;19926;-77
2022/04/21 12:50:51;;;;;;;;;;;15.90;99.90;;;;;;4880075;29;19961;-78
2022/04/21 12:53:25;;;;;;;;;;;15.80;99.90;;;;;;4879464;29;19912;-77
2022/04/21 12:55:52;;;;;;;;;;;15.90;99.90;;;;;;4878697;29;19912;-77
2022/04/21 12:58:28;;;;;;;;;;;15.80;99.90;;;;;;4879248;29;19916;-76
2022/04/21 13:00:54;;;;;;;;;;;15.90;99.90;;;;;;4873852;29;19920;-77
2022/04/21 13:03:21;;;;;;;;;;;15.80;99.90;;;;;;4860835;29;19924;-76
2022/04/21 13:05:50;;;;;;;;;;;15.90;99.90;;;;;;4860584;29;19912;-77
2022/04/21 13:08:17;;;;;;;;;;;15.90;99.90;;;;;;4860858;29;20360;-77
2022/04/21 13:10:44;;;;;;;;;;;15.90;99.90;;;;;;4860941;29;20003;-78
2022/04/21 13:13:11;;;;;;;;;;;15.90;99.90;;;;;;4860561;29;19953;-78
2022/04/21 13:15:37;;;;;;;;;;;15.80;99.90;;;;;;4860595;29;19920;-78
2022/04/21 13:18:04;;;;;;;;;;;15.80;99.90;;;;;;4860828;29;19938;-77
2022/04/21 13:23:16;;;;;;;;;;;15.70;99.90;;;;;;4861121;29;20060;-78
2022/04/21 13:25:43;;;;;;;;;;;15.70;99.90;;;;;;4859597;29;19912;-77
2022/04/21 13:28:10;;;;;;;;;;;15.70;99.90;;;;;;4860499;29;19955;-78
2022/04/21 13:30:36;;;;;;;;;;;15.70;99.90;;;;;;4860689;29;20373;-78
2022/04/21 13:33:21;;;;;;;;;;;15.70;99.90;;;;;;4860559;29;20284;-78
2022/04/21 13:35:51;;;;;;;;;;;15.70;99.90;;;;;;4860371;29;19913;-78
2022/04/21 13:38:19;;;;;;;;;;;15.60;99.90;;;;;;4859455;29;20394;-78
2022/04/21 13:40:45;;;;;;;;;;;15.70;99.90;;;;;;4860563;29;19919;-79
2022/04/21 13:43:12;;;;;;;;;;;15.60;99.90;;;;;;4860503;29;19929;-78
2022/04/21 13:45:39;;;;;;;;;;;15.60;99.90;;;;;;4860385;29;19919;-78
2022/04/21 13:48:09;;;;;;;;;;;15.60;99.90;;;;;;4860520;29;19926;-79
2022/04/21 13:50:36;;;;;;;;;;;15.50;99.90;;;;;;4860447;29;19912;-79
2022/04/21 13:53:03;;;;;;;;;;;15.50;99.90;;;;;;4860302;29;19916;-78
2022/04/21 13:55:33;;;;;;;;;;;15.50;99.90;;;;;;4860424;29;19916;-78
2022/04/21 13:58:00;;;;;;;;;;;15.50;99.90;;;;;;4861823;29;20369;-76
2022/04/21 14:00:27;;;;;;;;;;;15.60;99.90;;;;;;4863840;29;19913;-76
2022/04/21 14:02:54;;;;;;;;;;;15.60;99.90;;;;;;4863410;29;20408;-75
2022/04/21 14:05:20;;;;;;;;;;;15.80;99.90;;;;;;4863540;29;20003;-75
2022/04/21 14:07:47;;;;;;;;;;;15.70;99.90;;;;;;4863436;29;19920;-75
2022/04/21 14:10:14;;;;;;;;;;;15.70;99.90;;;;;;4863612;29;19913;-76
2022/04/21 14:12:44;;;;;;;;;;;15.60;99.90;;;;;;4867524;29;19923;-77
2022/04/21 14:15:12;;;;;;;;;;;15.60;99.90;;;;;;4880248;29;20295;-75
2022/04/21 14:17:39;;;;;;;;;;;15.50;99.90;;;;;;4879864;29;20280;-76
2022/04/21 14:20:06;;;;;;;;;;;15.60;99.90;;;;;;4881559;29;19912;-76
2022/04/21 14:22:33;;;;;;;;;;;15.50;99.90;;;;;;4881357;29;20041;-76
2022/04/21 14:24:59;;;;;;;;;;;15.60;99.90;;;;;;4881927;29;20364;-75
2022/04/21 14:27:26;;;;;;;;;;;15.60;99.90;;;;;;4880431;29;20025;-75
2022/04/21 14:29:54;;;;;;;;;;;15.60;99.90;;;;;;4881569;29;19979;-77
2022/04/21 14:32:21;;;;;;;;;;;15.50;99.90;;;;;;4881797;29;20291;-74
2022/04/21 14:34:47;;;;;;;;;;;15.60;99.90;;;;;;4881734;29;20119;-76
2022/04/21 14:44:03;;;;;;;;;;;15.60;99.90;;;;;;4881670;29;20304;-74
2022/04/21 14:45:30;;;;;;;;;;;15.60;99.90;;;;;;4880810;29;19919;-76
2022/04/21 14:47:58;;;;;;;;;;;15.50;99.90;;;;;;4881532;29;20312;-75
2022/04/21 14:50:24;;;;;;;;;;;15.60;99.90;;;;;;4881591;29;19911;-75
2022/04/21 14:52:51;;;;;;;;;;;15.60;99.90;;;;;;4881421;29;19959;-74
2022/04/21 14:55:18;;;;;;;;;;;15.60;99.90;;;;;;4880086;29;20067;-75
2022/04/21 14:57:44;;;;;;;;;;;15.50;99.90;;;;;;4880862;29;19935;-76
2022/04/21 15:00:11;;;;;;;;;;;15.40;99.90;;;;;;4881246;29;20276;-75
2022/04/21 15:02:38;;;;;;;;;;;15.50;99.90;;;;;;4881198;29;19920;-75
2022/04/21 15:05:05;;;;;;;;;;;15.60;99.90;;;;;;4881399;29;19916;-75
2022/04/21 15:07:32;;;;;;;;;;;15.70;99.90;;;;;;4880950;29;19919;-75
2022/04/21 15:09:58;;;;;;;;;;;15.70;99.90;;;;;;4880117;29;19912;-76
2022/04/21 15:12:25;;;;;;;;;;;15.70;99.90;;;;;;4881019;29;20423;-75
2022/04/21 15:14:52;;;;;;;;;;;15.70;99.90;;;;;;4881159;29;19912;-75
2022/04/21 15:17:19;;;;;;;;;;;15.70;99.90;;;;;;4880938;29;19920;-75
2022/04/21 15:19:47;;;;;;;;;;;15.70;99.90;;;;;;4880845;29;20276;-75
2022/04/21 15:22:18;;;;;;;;;;;15.70;99.90;;;;;;4880932;29;20010;-75
2022/04/21 15:24:48;;;;;;;;;;;15.80;99.90;;;;;;4880901;29;19970;-75
2022/04/21 15:27:16;;;;;;;;;;;15.80;99.90;;;;;;4880956;29;19924;-75
2022/04/21 15:29:42;;;;;;;;;;;15.80;99.90;;;;;;4880492;29;19994;-75